createdAt,value
2022-12-28T00:00:54.617Z,100974.80
2022-12-28T00:01:56.433Z,100967.72
2022-12-28T00:02:58.848Z,100979.72
2022-12-28T00:04:00.607Z,100986.48
2022-12-28T00:05:02.402Z,100975.99
2022-12-28T00:06:04.366Z,100983.63
2022-12-28T00:07:06.159Z,100986.85
2022-12-28T00:08:07.960Z,100992.75
2022-12-28T00:09:09.745Z,101001.33
2022-12-28T00:10:12.049Z,100999.65
2022-12-28T00:11:20.331Z,101009.17
2022-12-28T00:12:17.463Z,101015.02
2022-12-28T00:13:19.266Z,101021.70
2022-12-28T00:14:21.047Z,101012.06
2022-12-28T00:15:22.892Z,101016.23
2022-12-28T00:16:24.799Z,101004.16
2022-12-28T00:17:26.638Z,101012.78
2022-12-28T00:18:28.415Z,101009.42
2022-12-28T00:19:30.346Z,101016.38
2022-12-28T00:20:32.399Z,101020.73
2022-12-28T00:21:34.219Z,101009.52
2022-12-28T00:22:35.996Z,101012.16
2022-12-28T00:23:37.793Z,101019.06
2022-12-28T00:24:39.587Z,101019.16
2022-12-28T00:25:41.384Z,101014.93
2022-12-28T00:26:43.415Z,101024.52
2022-12-28T00:27:46.929Z,101023.70
2022-12-28T00:28:48.711Z,101031.45
2022-12-28T00:29:50.507Z,101024.47
2022-12-28T00:30:52.395Z,101022.64
2022-12-28T00:31:54.261Z,101031.13
2022-12-28T00:32:55.994Z,101036.11
2022-12-28T00:33:57.804Z,101032.61
2022-12-28T00:34:59.722Z,101029.02
2022-12-28T00:36:01.510Z,101038.40
2022-12-28T00:37:10.412Z,101052.09
2022-12-28T00:38:06.918Z,101037.30
2022-12-28T00:39:08.717Z,101045.71
2022-12-28T00:40:10.606Z,101042.84
2022-12-28T00:41:14.113Z,101053.93
2022-12-28T00:42:15.951Z,101050.45
2022-12-28T00:43:17.706Z,101060.83
2022-12-28T00:44:19.499Z,101053.13
2022-12-28T00:45:21.277Z,101050.59
2022-12-28T00:46:23.182Z,101050.64
2022-12-28T00:47:25.008Z,101052.41
2022-12-28T00:48:26.777Z,101060.22
2022-12-28T00:49:28.601Z,101058.50
2022-12-28T00:50:30.417Z,101049.88
2022-12-28T00:51:32.240Z,101061.22
2022-12-28T00:52:34.073Z,101049.22
2022-12-28T00:53:35.882Z,101054.43
2022-12-28T00:54:37.686Z,101065.59
2022-12-28T00:55:39.500Z,101059.50
2022-12-28T00:56:41.616Z,101062.04
2022-12-28T00:57:43.482Z,101066.25
2022-12-28T00:58:45.274Z,101058.20
2022-12-28T00:59:47.102Z,101058.20
2022-12-28T01:00:49.096Z,101070.36
2022-12-28T01:01:51.100Z,101066.85
2022-12-28T01:02:53.062Z,101063.47
2022-12-28T01:03:55.122Z,101064.31
2022-12-28T01:04:56.939Z,101069.54
2022-12-28T01:05:58.758Z,101069.54
2022-12-28T01:07:00.578Z,101072.07
2022-12-28T01:08:02.420Z,101074.55
2022-12-28T01:09:04.350Z,101065.03
2022-12-28T01:10:06.552Z,101075.22
2022-12-28T01:11:08.357Z,101075.92
2022-12-28T01:12:10.171Z,101068.97
2022-12-28T01:13:12.044Z,101077.54
2022-12-28T01:14:13.855Z,101078.30
2022-12-28T01:15:15.652Z,101065.33
2022-12-28T01:16:17.686Z,101080.73
2022-12-28T01:17:19.655Z,101070.23
2022-12-28T01:18:21.505Z,101064.05
2022-12-28T01:19:23.326Z,101064.91
2022-12-28T01:20:25.115Z,101069.92
2022-12-28T01:21:26.956Z,101069.16
2022-12-28T01:22:28.782Z,101074.27
2022-12-28T01:23:30.635Z,101081.01
2022-12-28T01:24:32.446Z,101073.86
2022-12-28T01:25:34.287Z,101086.55
2022-12-28T01:26:36.210Z,101083.80
2022-12-28T01:27:38.005Z,101085.52
2022-12-28T01:28:39.805Z,101084.66
2022-12-28T01:29:41.617Z,101079.48
2022-12-28T01:30:43.541Z,101089.50
2022-12-28T01:31:45.430Z,101091.86
2022-12-28T01:32:47.302Z,101094.22
2022-12-28T01:33:49.161Z,101094.11
2022-12-28T01:34:50.975Z,101101.91
2022-12-28T01:35:52.796Z,101090.83
2022-12-28T01:36:54.595Z,101092.54
2022-12-28T01:37:56.411Z,101090.66
2022-12-28T01:38:58.332Z,101104.37
2022-12-28T01:40:00.174Z,101100.11
2022-12-28T01:41:01.958Z,101103.56
2022-12-28T01:42:03.762Z,101097.53
2022-12-28T01:43:05.595Z,101102.69
2022-12-28T01:44:07.495Z,101100.98
2022-12-28T01:45:09.290Z,101093.30
2022-12-28T01:46:11.503Z,101102.80
2022-12-28T01:47:13.321Z,101094.22
2022-12-28T01:48:15.131Z,101103.56
2022-12-28T01:49:16.995Z,101103.56
2022-12-28T01:50:19.320Z,101107.65
2022-12-28T01:51:21.120Z,101106.63
2022-12-28T01:52:22.923Z,101111.73
2022-12-28T01:53:24.765Z,101106.52
2022-12-28T01:54:26.623Z,101112.60
2022-12-28T01:55:28.419Z,101117.70
2022-12-28T01:56:30.538Z,101107.39
2022-12-28T01:57:32.352Z,101114.89
2022-12-28T01:58:34.162Z,101117.36
2022-12-28T01:59:36.028Z,101130.89
2022-12-28T02:00:38.046Z,101118.95
2022-12-28T02:01:39.926Z,101121.41
2022-12-28T02:02:41.850Z,101129.78
2022-12-28T02:03:43.774Z,101135.63
2022-12-28T02:04:45.623Z,101131.25
2022-12-28T02:05:47.427Z,101137.22
2022-12-28T02:06:49.235Z,101131.02
2022-12-28T02:07:51.052Z,101132.69
2022-12-28T02:08:52.882Z,101141.33
2022-12-28T02:10:41.209Z,101136.08
2022-12-28T02:10:58.552Z,101127.47
2022-12-28T02:12:00.355Z,101133.59
2022-12-28T02:13:02.227Z,101132.69
2022-12-28T02:14:04.108Z,101137.91
2022-12-28T02:15:06.073Z,101125.07
2022-12-28T02:16:08.292Z,101132.88
2022-12-28T02:17:10.182Z,101132.93
2022-12-28T02:18:12.009Z,101134.70
2022-12-28T02:19:13.836Z,101144.33
2022-12-28T02:20:16.224Z,101139.23
2022-12-28T02:21:18.039Z,101142.68
2022-12-28T02:22:19.860Z,101138.39
2022-12-28T02:23:21.665Z,101147.72
2022-12-28T02:24:23.465Z,101142.50
2022-12-28T02:25:25.314Z,101146.79
2022-12-28T02:26:27.242Z,101142.44
2022-12-28T02:27:29.046Z,101146.79
2022-12-28T02:28:30.876Z,101144.90
2022-12-28T02:29:32.682Z,101145.58
2022-12-28T02:30:34.652Z,101160.00
2022-12-28T02:31:36.443Z,101154.72
2022-12-28T02:32:38.237Z,101151.00
2022-12-28T02:33:40.062Z,101153.39
2022-12-28T02:34:41.893Z,101152.45
2022-12-28T02:35:43.755Z,101152.39
2022-12-28T02:36:45.650Z,101156.69
2022-12-28T02:37:47.468Z,101159.38
2022-12-28T02:38:49.279Z,101161.06
2022-12-28T02:39:51.098Z,101153.27
2022-12-28T02:40:53.059Z,101158.61
2022-12-28T02:41:54.862Z,101155.34
2022-12-28T02:42:56.677Z,101159.76
2022-12-28T02:43:58.493Z,101157.12
2022-12-28T02:45:00.303Z,101164.02
2022-12-28T02:46:02.226Z,101162.40
2022-12-28T02:47:04.020Z,101164.08
2022-12-28T02:48:05.823Z,101159.88
2022-12-28T02:49:07.641Z,101162.40
2022-12-28T02:50:09.726Z,101168.55
2022-12-28T02:51:11.592Z,101165.97
2022-12-28T02:52:13.426Z,101157.42
2022-12-28T02:53:15.242Z,101161.69
2022-12-28T02:54:17.037Z,101165.97
2022-12-28T02:55:18.833Z,101148.55
2022-12-28T02:56:20.712Z,101155.41
2022-12-28T02:57:22.525Z,101157.80
2022-12-28T02:58:24.331Z,101164.61
2022-12-28T02:59:26.144Z,101162.09
2022-12-28T03:00:28.061Z,101159.51
2022-12-28T03:01:29.938Z,101163.83
2022-12-28T03:02:31.751Z,101168.98
2022-12-28T03:03:33.570Z,101169.11
2022-12-28T03:04:35.338Z,101160.62
2022-12-28T03:05:37.201Z,101159.88
2022-12-28T03:06:39.135Z,101164.20
2022-12-28T03:07:40.926Z,101162.52
2022-12-28T03:08:42.718Z,101171.06
2022-12-28T03:09:44.505Z,101170.26
2022-12-28T03:10:46.393Z,101173.77
2022-12-28T03:11:48.225Z,101178.19
2022-12-28T03:12:50.003Z,101184.14
2022-12-28T03:13:51.807Z,101179.92
2022-12-28T03:14:53.611Z,101186.85
2022-12-28T03:15:55.486Z,101184.21
2022-12-28T03:16:57.376Z,101185.92
2022-12-28T03:17:59.177Z,101192.81
2022-12-28T03:19:00.971Z,101194.46
2022-12-28T03:20:02.739Z,101199.56
2022-12-28T03:21:04.552Z,101202.14
2022-12-28T03:22:06.367Z,101198.75
2022-12-28T03:23:08.171Z,101201.39
2022-12-28T03:24:09.951Z,101201.52
2022-12-28T03:25:11.717Z,101208.52
2022-12-28T03:26:13.805Z,101203.48
2022-12-28T03:27:15.649Z,101211.28
2022-12-28T03:28:17.446Z,101203.60
2022-12-28T03:29:19.256Z,101200.18
2022-12-28T03:30:21.043Z,101209.81
2022-12-28T03:31:22.842Z,101209.00
2022-12-28T03:32:24.649Z,101215.16
2022-12-28T03:33:26.437Z,101217.73
2022-12-28T03:34:28.212Z,101220.31
2022-12-28T03:35:29.997Z,101224.67
2022-12-28T03:36:31.812Z,101223.02
2022-12-28T03:37:33.686Z,101223.02
2022-12-28T03:38:35.471Z,101236.89
2022-12-28T03:39:37.241Z,101230.82
2022-12-28T03:40:39.026Z,101230.82
2022-12-28T03:41:40.822Z,101242.80
2022-12-28T03:42:42.655Z,101240.21
2022-12-28T03:43:44.426Z,101234.99
2022-12-28T03:44:46.243Z,101238.38
2022-12-28T03:45:48.163Z,101241.83
2022-12-28T03:46:50.053Z,101243.47
2022-12-28T03:47:51.883Z,101245.19
2022-12-28T03:48:53.699Z,101247.70
2022-12-28T03:49:55.476Z,101241.70
2022-12-28T03:50:57.274Z,101242.61
2022-12-28T03:51:59.139Z,101240.95
2022-12-28T03:53:00.965Z,101240.95
2022-12-28T03:54:02.747Z,101240.83
2022-12-28T03:55:04.540Z,101245.12
2022-12-28T03:56:06.637Z,101245.12
2022-12-28T03:57:08.430Z,101245.99
2022-12-28T03:58:10.268Z,101240.83
2022-12-28T03:59:12.062Z,101240.83
2022-12-28T04:00:16.247Z,101245.99
2022-12-28T04:01:18.135Z,101247.64
2022-12-28T04:02:20.142Z,101245.93
2022-12-28T04:03:22.133Z,101246.86
2022-12-28T04:04:23.855Z,101249.44
2022-12-28T04:05:25.689Z,101253.86
2022-12-28T04:06:27.842Z,101253.86
2022-12-28T04:07:29.675Z,101249.50
2022-12-28T04:08:31.538Z,101250.28
2022-12-28T04:09:33.329Z,101250.34
2022-12-28T04:10:35.432Z,101244.34
2022-12-28T04:11:37.206Z,101256.38
2022-12-28T04:12:39.001Z,101252.98
2022-12-28T04:13:40.819Z,101262.47
2022-12-28T04:14:42.610Z,101252.98
2022-12-28T04:15:44.441Z,101260.73
2022-12-28T04:16:46.192Z,101256.56
2022-12-28T04:17:47.986Z,101261.66
2022-12-28T04:18:49.841Z,101259.89
2022-12-28T04:19:51.605Z,101265.11
2022-12-28T04:20:53.493Z,101268.59
2022-12-28T04:21:55.300Z,101265.95
2022-12-28T04:22:57.230Z,101259.08
2022-12-28T04:23:59.058Z,101262.34
2022-12-28T04:25:00.861Z,101262.22
2022-12-28T04:26:02.637Z,101268.95
2022-12-28T04:27:04.428Z,101263.73
2022-12-28T04:28:06.210Z,101270.61
2022-12-28T04:29:08.039Z,101269.77
2022-12-28T04:30:10.437Z,101268.95
2022-12-28T04:31:12.258Z,101271.60
2022-12-28T04:32:13.995Z,101278.53
2022-12-28T04:33:15.785Z,101272.59
2022-12-28T04:34:17.628Z,101277.69
2022-12-28T04:35:19.405Z,101270.02
2022-12-28T04:36:21.293Z,101270.14
2022-12-28T04:37:23.081Z,101269.40
2022-12-28T04:38:24.908Z,101277.95
2022-12-28T04:39:26.710Z,101281.37
2022-12-28T04:40:28.490Z,101272.78
2022-12-28T04:41:30.267Z,101276.89
2022-12-28T04:42:32.071Z,101278.53
2022-12-28T04:43:33.863Z,101285.30
2022-12-28T04:44:35.695Z,101281.73
2022-12-28T04:45:37.465Z,101291.17
2022-12-28T04:46:39.279Z,101280.02
2022-12-28T04:47:41.051Z,101282.53
2022-12-28T04:48:42.852Z,101294.50
2022-12-28T04:49:44.677Z,101291.73
2022-12-28T04:50:46.433Z,101299.53
2022-12-28T04:51:48.221Z,101302.84
2022-12-28T04:52:50.015Z,101300.27
2022-12-28T04:53:51.900Z,101301.23
2022-12-28T04:54:53.737Z,101302.11
2022-12-28T04:55:55.525Z,101305.62
2022-12-28T04:56:57.299Z,101307.39
2022-12-28T04:57:59.090Z,101307.52
2022-12-28T04:59:00.884Z,101304.14
2022-12-28T05:00:02.724Z,101310.17
2022-12-28T05:01:04.574Z,101309.36
2022-12-28T05:02:06.517Z,101311.94
2022-12-28T05:03:08.338Z,101317.91
2022-12-28T05:04:10.797Z,101318.71
2022-12-28T05:05:12.646Z,101324.70
2022-12-28T05:06:14.731Z,101326.45
2022-12-28T05:07:16.541Z,101324.70
2022-12-28T05:08:18.335Z,101329.94
2022-12-28T05:09:20.170Z,101329.09
2022-12-28T05:10:22.002Z,101330.00
2022-12-28T05:11:23.785Z,101330.87
2022-12-28T05:12:25.578Z,101330.80
2022-12-28T05:13:27.400Z,101330.87
2022-12-28T05:14:34.995Z,101338.61
2022-12-28T05:15:32.974Z,101341.19
2022-12-28T05:16:34.893Z,101340.31
2022-12-28T05:17:36.722Z,101335.16
2022-12-28T05:18:38.530Z,101337.80
2022-12-28T05:19:40.331Z,101337.80
2022-12-28T05:20:42.485Z,101340.45
2022-12-28T05:21:44.286Z,101340.52
2022-12-28T05:22:46.100Z,101345.67
2022-12-28T05:23:47.923Z,101349.13
2022-12-28T05:24:49.736Z,101352.57
2022-12-28T05:25:51.586Z,101349.05
2022-12-28T05:26:53.499Z,101343.90
2022-12-28T05:27:55.304Z,101346.41
2022-12-28T05:28:57.124Z,101351.57
2022-12-28T05:29:58.943Z,101346.34
2022-12-28T05:31:00.844Z,101355.80
2022-12-28T05:32:02.626Z,101347.98
2022-12-28T05:33:04.388Z,101352.24
2022-12-28T05:34:06.230Z,101353.08
2022-12-28T05:35:08.053Z,101358.24
2022-12-28T05:36:10.922Z,101360.76
2022-12-28T05:37:18.506Z,101367.66
2022-12-28T05:38:16.354Z,101357.34
2022-12-28T05:39:18.191Z,101356.47
2022-12-28T05:40:20.102Z,101368.50
2022-12-28T05:41:21.935Z,101371.08
2022-12-28T05:42:23.741Z,101365.85
2022-12-28T05:43:25.540Z,101366.66
2022-12-28T05:44:27.369Z,101376.03
2022-12-28T05:45:29.183Z,101380.36
2022-12-28T05:46:31.207Z,101379.55
2022-12-28T05:47:33.044Z,101378.68
2022-12-28T05:48:34.844Z,101382.06
2022-12-28T05:49:36.769Z,101375.20
2022-12-28T05:50:38.586Z,101383.77
2022-12-28T05:51:40.444Z,101374.39
2022-12-28T05:52:42.269Z,101380.36
2022-12-28T05:53:44.094Z,101386.42
2022-12-28T05:54:45.902Z,101382.13
2022-12-28T05:55:47.730Z,101380.36
2022-12-28T05:56:49.583Z,101386.35
2022-12-28T05:57:51.402Z,101385.45
2022-12-28T05:58:53.206Z,101392.31
2022-12-28T05:59:55.012Z,101394.09
2022-12-28T06:00:56.837Z,101394.09
2022-12-28T06:01:58.980Z,101395.77
2022-12-28T06:03:00.993Z,101400.78
2022-12-28T06:04:03.229Z,101394.76
2022-12-28T06:05:05.060Z,101396.44
2022-12-28T06:06:07.485Z,101397.34
2022-12-28T06:07:09.338Z,101399.08
2022-12-28T06:08:11.153Z,101402.50
2022-12-28T06:09:12.962Z,101396.44
2022-12-28T06:10:14.883Z,101403.30
2022-12-28T06:11:17.476Z,101402.42
2022-12-28T06:12:19.310Z,101400.72
2022-12-28T06:13:21.118Z,101406.75
2022-12-28T06:14:22.930Z,101396.44
2022-12-28T06:15:24.765Z,101399.02
2022-12-28T06:16:26.745Z,101398.95
2022-12-28T06:17:28.754Z,101399.84
2022-12-28T06:18:30.564Z,101400.86
2022-12-28T06:19:32.376Z,101403.44
2022-12-28T06:20:34.206Z,101405.14
2022-12-28T06:21:36.043Z,101399.08
2022-12-28T06:22:37.861Z,101402.63
2022-12-28T06:23:39.674Z,101400.05
2022-12-28T06:24:41.476Z,101402.63
2022-12-28T06:25:43.311Z,101404.41
2022-12-28T06:26:45.844Z,101408.73
2022-12-28T06:27:47.695Z,101409.63
2022-12-28T06:28:49.564Z,101403.57
2022-12-28T06:29:51.446Z,101413.15
2022-12-28T06:30:53.348Z,101423.47
2022-12-28T06:31:55.204Z,101422.66
2022-12-28T06:32:57.012Z,101425.31
2022-12-28T06:33:58.855Z,101422.73
2022-12-28T06:35:00.700Z,101421.89
2022-12-28T06:36:02.498Z,101427.95
2022-12-28T06:37:04.293Z,101429.63
2022-12-28T06:38:06.167Z,101433.98
2022-12-28T06:39:08.014Z,101430.61
2022-12-28T06:40:10.603Z,101439.15
2022-12-28T06:41:14.275Z,101434.86
2022-12-28T06:42:16.058Z,101448.66
2022-12-28T06:43:17.936Z,101444.38
2022-12-28T06:44:19.749Z,101446.95
2022-12-28T06:45:21.558Z,101454.63
2022-12-28T06:46:23.580Z,101457.14
2022-12-28T06:47:25.393Z,101455.42
2022-12-28T06:48:27.215Z,101457.20
2022-12-28T06:49:29.048Z,101453.89
2022-12-28T06:50:33.145Z,101453.89
2022-12-28T06:51:34.515Z,101459.98
2022-12-28T06:52:36.299Z,101452.25
2022-12-28T06:53:38.190Z,101463.38
2022-12-28T06:54:39.977Z,101456.53
2022-12-28T06:55:41.778Z,101463.30
2022-12-28T06:56:43.590Z,101467.59
2022-12-28T06:57:45.418Z,101473.63
2022-12-28T06:58:47.285Z,101477.11
2022-12-28T06:59:49.055Z,101471.11
2022-12-28T07:00:51.016Z,101471.17
2022-12-28T07:01:52.929Z,101471.25
2022-12-28T07:02:54.939Z,101474.73
2022-12-28T07:03:56.785Z,101476.47
2022-12-28T07:04:58.597Z,101477.31
2022-12-28T07:06:00.409Z,101473.76
2022-12-28T07:07:02.224Z,101471.11
2022-12-28T07:08:09.121Z,101472.68
2022-12-28T07:09:07.909Z,101476.06
2022-12-28T07:10:10.510Z,101476.13
2022-12-28T07:11:12.322Z,101471.88
2022-12-28T07:12:14.134Z,101471.81
2022-12-28T07:13:15.976Z,101485.44
2022-12-28T07:14:17.811Z,101482.80
2022-12-28T07:15:19.609Z,101492.24
2022-12-28T07:16:21.600Z,101493.05
2022-12-28T07:17:23.453Z,101500.78
2022-12-28T07:18:25.363Z,101499.98
2022-12-28T07:19:27.313Z,101500.84
2022-12-28T07:20:29.152Z,101507.72
2022-12-28T07:21:30.944Z,101519.70
2022-12-28T07:22:32.749Z,101510.44
2022-12-28T07:23:34.556Z,101507.09
2022-12-28T07:24:36.409Z,101509.67
2022-12-28T07:25:38.205Z,101514.90
2022-12-28T07:26:40.101Z,101526.05
2022-12-28T07:27:41.893Z,101520.12
2022-12-28T07:28:43.777Z,101511.45
2022-12-28T07:29:45.611Z,101514.90
2022-12-28T07:30:47.514Z,101521.55
2022-12-28T07:31:49.705Z,101525.84
2022-12-28T07:32:51.493Z,101532.75
2022-12-28T07:33:53.287Z,101529.36
2022-12-28T07:34:55.111Z,101535.39
2022-12-28T07:35:56.892Z,101531.14
2022-12-28T07:36:58.793Z,101530.23
2022-12-28T07:38:00.566Z,101538.88
2022-12-28T07:39:02.363Z,101540.55
2022-12-28T07:40:04.182Z,101538.95
2022-12-28T07:41:06.011Z,101545.72
2022-12-28T07:42:07.796Z,101541.39
2022-12-28T07:43:09.590Z,101552.58
2022-12-28T07:44:11.459Z,101550.00
2022-12-28T07:45:13.258Z,101550.95
2022-12-28T07:46:15.371Z,101552.72
2022-12-28T07:47:17.191Z,101554.50
2022-12-28T07:48:18.971Z,101550.22
2022-12-28T07:49:20.763Z,101552.06
2022-12-28T07:50:22.713Z,101554.64
2022-12-28T07:51:24.483Z,101558.09
2022-12-28T07:52:26.285Z,101558.97
2022-12-28T07:53:28.048Z,101561.62
2022-12-28T07:54:29.843Z,101559.11
2022-12-28T07:55:31.695Z,101559.17
2022-12-28T07:57:34.752Z,101555.06
2022-12-28T07:58:36.567Z,101559.34
2022-12-28T07:59:38.357Z,101557.64
2022-12-28T08:00:40.705Z,101558.58
2022-12-28T08:01:42.520Z,101543.94
2022-12-28T08:02:44.270Z,101547.39
2022-12-28T08:03:46.099Z,101554.33
2022-12-28T08:04:52.257Z,101556.07
2022-12-28T08:05:51.605Z,101557.05
2022-12-28T08:06:53.494Z,101556.28
2022-12-28T08:07:59.819Z,101564.99
2022-12-28T08:08:58.950Z,101557.32
2022-12-28T08:10:00.738Z,101566.73
2022-12-28T08:11:02.561Z,101565.94
2022-12-28T08:12:04.356Z,101562.55
2022-12-28T08:13:06.165Z,101560.84
2022-12-28T08:14:07.971Z,101559.20
2022-12-28T08:15:09.858Z,101558.27
2022-12-28T08:16:12.263Z,101564.23
2022-12-28T08:17:20.633Z,101567.78
2022-12-28T08:18:17.725Z,101568.66
2022-12-28T08:19:19.540Z,101566.08
2022-12-28T08:20:21.547Z,101565.20
2022-12-28T08:21:23.445Z,101570.44
2022-12-28T08:22:25.283Z,101572.11
2022-12-28T08:23:27.090Z,101568.72
2022-12-28T08:24:28.941Z,101573.19
2022-12-28T08:25:30.739Z,101572.34
2022-12-28T08:26:32.614Z,101567.19
2022-12-28T08:27:38.431Z,101563.00
2022-12-28T08:28:38.023Z,101567.36
2022-12-28T08:29:39.940Z,101558.70
2022-12-28T08:30:41.981Z,101557.84
2022-12-28T08:31:43.762Z,101558.70
2022-12-28T08:32:45.563Z,101561.29
2022-12-28T08:33:47.396Z,101563.88
2022-12-28T08:34:49.365Z,101559.55
2022-12-28T08:35:51.139Z,101556.13
2022-12-28T08:36:53.117Z,101557.91
2022-12-28T08:37:54.997Z,101558.77
2022-12-28T08:38:56.735Z,101564.01
2022-12-28T08:39:58.535Z,101558.91
2022-12-28T08:41:00.326Z,101562.47
2022-12-28T08:42:02.289Z,101555.59
2022-12-28T08:43:04.413Z,101553.88
2022-12-28T08:44:06.329Z,101561.70
2022-12-28T08:45:08.145Z,101558.31
2022-12-28T08:46:11.131Z,101556.60
2022-12-28T08:47:13.064Z,101558.38
2022-12-28T08:48:14.819Z,101559.18
2022-12-28T08:49:16.641Z,101562.67
2022-12-28T08:50:20.184Z,101567.91
2022-12-28T08:51:22.409Z,101565.39
2022-12-28T08:52:24.244Z,101564.61
2022-12-28T08:53:26.051Z,101568.03
2022-12-28T08:54:27.864Z,101566.33
2022-12-28T08:55:29.649Z,101569.05
2022-12-28T08:56:31.556Z,101562.27
2022-12-28T08:57:33.408Z,101563.08
2022-12-28T08:58:35.230Z,101569.78
2022-12-28T08:59:37.012Z,101569.84
2022-12-28T09:00:38.922Z,101569.05
2022-12-28T09:01:44.326Z,101566.46
2022-12-28T09:02:44.590Z,101574.27
2022-12-28T09:03:46.600Z,101574.41
2022-12-28T09:04:48.352Z,101577.89
2022-12-28T09:05:54.442Z,101576.19
2022-12-28T09:06:53.790Z,101572.80
2022-12-28T09:07:59.603Z,101573.00
2022-12-28T09:09:07.217Z,101565.31
2022-12-28T09:10:03.087Z,101572.94
2022-12-28T09:11:04.911Z,101567.70
2022-12-28T09:12:06.712Z,101572.80
2022-12-28T09:13:08.558Z,101572.02
2022-12-28T09:14:10.375Z,101565.98
2022-12-28T09:15:12.367Z,101564.28
2022-12-28T09:16:14.584Z,101572.09
2022-12-28T09:17:16.467Z,101566.86
2022-12-28T09:18:18.316Z,101576.39
2022-12-28T09:19:20.186Z,101573.00
2022-12-28T09:20:22.017Z,101573.00
2022-12-28T09:21:23.879Z,101570.55
2022-12-28T09:22:25.667Z,101577.46
2022-12-28T09:23:27.584Z,101578.43
2022-12-28T09:24:29.414Z,101567.26
2022-12-28T09:25:31.277Z,101570.95
2022-12-28T09:26:33.258Z,101566.72
2022-12-28T09:27:35.067Z,101571.95
2022-12-28T09:28:37.013Z,101574.53
2022-12-28T09:29:38.835Z,101579.70
2022-12-28T09:30:41.216Z,101572.78
2022-12-28T09:31:43.334Z,101576.17
2022-12-28T09:32:45.197Z,101577.89
2022-12-28T09:34:24.785Z,101572.72
2022-12-28T09:34:50.658Z,101578.77
2022-12-28T09:35:52.467Z,101571.88
2022-12-28T09:36:54.384Z,101583.05
2022-12-28T09:37:56.197Z,101581.34
2022-12-28T09:38:58.067Z,101575.38
2022-12-28T09:40:01.788Z,101577.05
2022-12-28T09:41:03.792Z,101584.86
2022-12-28T09:42:05.724Z,101581.55
2022-12-28T09:43:07.537Z,101583.25
2022-12-28T09:44:09.483Z,101591.81
2022-12-28T09:45:11.357Z,101587.45
2022-12-28T09:46:13.496Z,101589.16
2022-12-28T09:47:15.407Z,101586.52
2022-12-28T09:48:17.507Z,101590.88
2022-12-28T09:49:19.484Z,101587.52
2022-12-28T09:50:21.324Z,101584.12
2022-12-28T09:51:23.090Z,101586.77
2022-12-28T09:52:24.900Z,101587.65
2022-12-28T09:53:26.773Z,101588.48
2022-12-28T09:54:28.685Z,101584.93
2022-12-28T09:55:30.512Z,101582.28
2022-12-28T09:56:32.404Z,101588.35
2022-12-28T09:57:34.229Z,101592.61
2022-12-28T09:58:36.164Z,101589.83
2022-12-28T09:59:37.998Z,101591.41
2022-12-28T10:00:39.961Z,101591.41
2022-12-28T10:01:41.955Z,101591.34
2022-12-28T10:02:43.921Z,101594.06
2022-12-28T10:03:45.821Z,101594.94
2022-12-28T10:04:49.518Z,101595.80
2022-12-28T10:05:51.368Z,101593.39
2022-12-28T10:06:53.161Z,101599.49
2022-12-28T10:07:55.043Z,101595.13
2022-12-28T10:08:56.908Z,101596.91
2022-12-28T10:09:58.763Z,101597.84
2022-12-28T10:11:00.693Z,101594.52
2022-12-28T10:12:02.499Z,101589.48
2022-12-28T10:13:06.663Z,101600.77
2022-12-28T10:14:07.919Z,101603.41
2022-12-28T10:15:09.804Z,101600.89
2022-12-28T10:16:12.391Z,101607.70
2022-12-28T10:17:14.278Z,101605.92
2022-12-28T10:18:16.106Z,101606.70
2022-12-28T10:19:17.944Z,101600.69
2022-12-28T10:20:19.892Z,101604.86
2022-12-28T10:21:26.849Z,101611.73
2022-12-28T10:22:25.386Z,101609.09
2022-12-28T10:23:27.246Z,101618.52
2022-12-28T10:24:31.848Z,101605.59
2022-12-28T10:25:32.698Z,101612.47
2022-12-28T10:26:34.608Z,101615.93
2022-12-28T10:27:36.431Z,101613.34
2022-12-28T10:28:38.254Z,101622.88
2022-12-28T10:29:40.057Z,101614.32
2022-12-28T10:30:42.028Z,101617.77
2022-12-28T10:31:43.880Z,101623.01
2022-12-28T10:32:45.783Z,101612.73
2022-12-28T10:33:47.602Z,101620.63
2022-12-28T10:34:49.499Z,101624.14
2022-12-28T10:35:51.381Z,101622.53
2022-12-28T10:36:53.217Z,101620.89
2022-12-28T10:37:55.016Z,101625.25
2022-12-28T10:38:56.839Z,101629.52
2022-12-28T10:39:58.651Z,101626.13
2022-12-28T10:41:00.612Z,101627.00
2022-12-28T10:42:02.426Z,101627.09
2022-12-28T10:43:10.192Z,101621.99
2022-12-28T10:44:37.802Z,101626.31
2022-12-28T10:45:11.505Z,101628.09
2022-12-28T10:46:13.528Z,101621.28
2022-12-28T10:47:15.335Z,101627.29
2022-12-28T10:48:18.368Z,101629.09
2022-12-28T10:49:20.308Z,101635.17
2022-12-28T10:51:25.880Z,101636.78
2022-12-28T10:52:27.715Z,101645.31
2022-12-28T10:53:29.533Z,101643.53
2022-12-28T10:54:31.369Z,101641.76
2022-12-28T10:55:33.488Z,101642.50
2022-12-28T10:56:35.608Z,101639.78
2022-12-28T10:57:38.109Z,101638.91
2022-12-28T10:58:40.027Z,101649.25
2022-12-28T10:59:41.824Z,101637.27
2022-12-28T11:00:52.136Z,101645.86
2022-12-28T11:01:47.864Z,101636.39
2022-12-28T11:02:49.841Z,101639.78
2022-12-28T11:03:21.745Z,101633.46
2022-12-28T11:03:51.807Z,101645.72
2022-12-28T11:04:53.614Z,101644.88
2022-12-28T11:05:57.410Z,101644.88
2022-12-28T11:06:59.216Z,101643.20
2022-12-28T11:08:01.047Z,101644.95
2022-12-28T11:09:02.877Z,101639.04
2022-12-28T11:10:04.770Z,101636.45
2022-12-28T11:11:06.571Z,101652.63
2022-12-28T11:12:08.413Z,101644.88
2022-12-28T11:13:10.233Z,101648.30
2022-12-28T11:14:12.066Z,101648.30
2022-12-28T11:15:13.875Z,101640.63
2022-12-28T11:16:16.030Z,101654.28
2022-12-28T11:17:17.863Z,101654.34
2022-12-28T11:18:19.673Z,101650.95
2022-12-28T11:19:21.479Z,101649.25
2022-12-28T11:20:23.393Z,101644.14
2022-12-28T11:22:44.979Z,101656.45
2022-12-28T11:23:46.796Z,101652.16
2022-12-28T11:24:48.622Z,101648.03
2022-12-28T11:25:50.420Z,101653.06
2022-12-28T11:26:52.359Z,101649.52
2022-12-28T11:27:54.218Z,101656.39
2022-12-28T11:28:56.112Z,101657.27
2022-12-28T11:29:57.926Z,101665.86
2022-12-28T11:30:59.841Z,101679.64
2022-12-28T11:32:01.720Z,101669.25
2022-12-28T11:33:03.615Z,101672.70
2022-12-28T11:34:05.427Z,101681.26
2022-12-28T11:35:07.233Z,101683.84
2022-12-28T11:36:10.313Z,101681.36
2022-12-28T11:37:12.278Z,101676.19
2022-12-28T11:38:14.130Z,101679.58
2022-12-28T11:39:15.953Z,101677.06
2022-12-28T11:40:17.784Z,101677.06
2022-12-28T11:41:19.601Z,101678.77
2022-12-28T11:42:39.182Z,101682.16
2022-12-28T11:43:25.061Z,101685.63
2022-12-28T11:44:26.878Z,101689.02
2022-12-28T11:45:28.728Z,101689.98
2022-12-28T11:46:30.609Z,101686.59
2022-12-28T11:47:32.409Z,101695.42
2022-12-28T11:48:34.264Z,101695.42
2022-12-28T11:49:36.071Z,101691.06